sensor_id;sensor_type;location;lat;lon;timestamp;P1;durP1;ratioP1;P2;durP2;ratioP2
68923;SDS011;55961;52.156;20.942;2023-10-19T00:01:21;61.28;;;29.33;;
68923;SDS011;55961;52.156;20.942;2023-10-19T00:03:54;62.22;;;29.75;;
68923;SDS011;55961;52.156;20.942;2023-10-19T00:06:21;68.03;;;30.90;;
68923;SDS011;55961;52.156;20.942;2023-10-19T00:08:48;65.53;;;30.13;;
68923;SDS011;55961;52.156;20.942;2023-10-19T00:11:17;66.40;;;29.87;;
68923;SDS011;55961;52.156;20.942;2023-10-19T00:13:51;68.30;;;30.50;;
68923;SDS011;55961;52.156;20.942;2023-10-19T00:16:23;74.38;;;32.97;;
68923;SDS011;55961;52.156;20.942;2023-10-19T00:18:55;75.10;;;34.63;;
68923;SDS011;55961;52.156;20.942;2023-10-19T00:21:24;72.72;;;34.85;;
68923;SDS011;55961;52.156;20.942;2023-10-19T00:23:53;66.80;;;31.17;;
68923;SDS011;55961;52.156;20.942;2023-10-19T00:26:26;69.97;;;31.60;;
68923;SDS011;55961;52.156;20.942;2023-10-19T00:28:55;68.68;;;30.55;;
68923;SDS011;55961;52.156;20.942;2023-10-19T00:31:21;63.13;;;30.23;;
68923;SDS011;55961;52.156;20.942;2023-10-19T00:33:48;66.90;;;31.17;;
68923;SDS011;55961;52.156;20.942;2023-10-19T00:36:18;57.17;;;29.03;;
68923;SDS011;55961;52.156;20.942;2023-10-19T00:38:48;64.03;;;29.30;;
68923;SDS011;55961;52.156;20.942;2023-10-19T00:41:14;61.55;;;30.02;;
68923;SDS011;55961;52.156;20.942;2023-10-19T00:43:47;56.65;;;27.08;;
68923;SDS011;55961;52.156;20.942;2023-10-19T00:46:23;58.45;;;28.13;;
68923;SDS011;55961;52.156;20.942;2023-10-19T00:48:57;57.23;;;27.73;;
68923;SDS011;55961;52.156;20.942;2023-10-19T00:51:27;61.53;;;27.58;;
68923;SDS011;55961;52.156;20.942;2023-10-19T00:53:57;61.72;;;29.48;;
68923;SDS011;55961;52.156;20.942;2023-10-19T00:56:26;61.78;;;27.58;;
68923;SDS011;55961;52.156;20.942;2023-10-19T00:58:57;60.70;;;27.70;;
68923;SDS011;55961;52.156;20.942;2023-10-19T01:01:32;56.40;;;28.17;;
68923;SDS011;55961;52.156;20.942;2023-10-19T01:04:02;57.05;;;28.15;;
68923;SDS011;55961;52.156;20.942;2023-10-19T01:06:29;61.70;;;29.88;;
68923;SDS011;55961;52.156;20.942;2023-10-19T01:08:58;65.57;;;30.20;;
68923;SDS011;55961;52.156;20.942;2023-10-19T01:11:24;62.93;;;30.00;;
68923;SDS011;55961;52.156;20.942;2023-10-19T01:13:54;64.17;;;30.50;;
68923;SDS011;55961;52.156;20.942;2023-10-19T01:16:20;64.30;;;31.40;;
68923;SDS011;55961;52.156;20.942;2023-10-19T01:18:47;64.30;;;30.50;;
68923;SDS011;55961;52.156;20.942;2023-10-19T01:21:16;63.15;;;30.75;;
68923;SDS011;55961;52.156;20.942;2023-10-19T01:23:46;67.35;;;30.88;;
68923;SDS011;55961;52.156;20.942;2023-10-19T01:26:13;62.57;;;29.53;;
68923;SDS011;55961;52.156;20.942;2023-10-19T01:28:47;66.68;;;30.83;;
68923;SDS011;55961;52.156;20.942;2023-10-19T01:31:20;65.18;;;30.38;;
68923;SDS011;55961;52.156;20.942;2023-10-19T01:33:53;61.70;;;30.00;;
68923;SDS011;55961;52.156;20.942;2023-10-19T01:36:21;65.97;;;31.92;;
68923;SDS011;55961;52.156;20.942;2023-10-19T01:38:48;61.23;;;29.53;;
68923;SDS011;55961;52.156;20.942;2023-10-19T01:41:14;66.60;;;30.38;;
68923;SDS011;55961;52.156;20.942;2023-10-19T01:43:44;64.10;;;32.15;;
68923;SDS011;55961;52.156;20.942;2023-10-19T01:46:12;64.70;;;30.80;;
68923;SDS011;55961;52.156;20.942;2023-10-19T01:48:47;63.22;;;30.35;;
68923;SDS011;55961;52.156;20.942;2023-10-19T01:51:23;61.23;;;29.60;;
68923;SDS011;55961;52.156;20.942;2023-10-19T01:53:54;67.15;;;30.42;;
68923;SDS011;55961;52.156;20.942;2023-10-19T01:56:24;73.55;;;34.30;;
68923;SDS011;55961;52.156;20.942;2023-10-19T01:58:50;73.00;;;32.17;;
68923;SDS011;55961;52.156;20.942;2023-10-19T02:01:19;67.00;;;33.15;;
68923;SDS011;55961;52.156;20.942;2023-10-19T02:03:49;73.33;;;32.80;;
68923;SDS011;55961;52.156;20.942;2023-10-19T02:06:20;74.18;;;33.42;;
68923;SDS011;55961;52.156;20.942;2023-10-19T02:11:15;70.18;;;31.13;;
68923;SDS011;55961;52.156;20.942;2023-10-19T02:13:45;65.07;;;29.88;;
68923;SDS011;55961;52.156;20.942;2023-10-19T02:16:12;61.40;;;29.27;;
68923;SDS011;55961;52.156;20.942;2023-10-19T02:18:44;68.22;;;31.65;;
68923;SDS011;55961;52.156;20.942;2023-10-19T02:21:10;68.53;;;31.42;;
68923;SDS011;55961;52.156;20.942;2023-10-19T02:23:39;65.50;;;32.05;;
68923;SDS011;55961;52.156;20.942;2023-10-19T02:26:07;60.65;;;30.10;;
68923;SDS011;55961;52.156;20.942;2023-10-19T02:28:33;64.00;;;31.23;;
68923;SDS011;55961;52.156;20.942;2023-10-19T02:31:02;60.75;;;29.38;;
68923;SDS011;55961;52.156;20.942;2023-10-19T02:33:49;63.75;;;29.70;;
68923;SDS011;55961;52.156;20.942;2023-10-19T02:36:25;67.55;;;30.52;;
68923;SDS011;55961;52.156;20.942;2023-10-19T02:38:56;60.08;;;30.38;;
68923;SDS011;55961;52.156;20.942;2023-10-19T02:41:29;61.13;;;30.20;;
68923;SDS011;55961;52.156;20.942;2023-10-19T02:43:55;58.90;;;29.67;;
68923;SDS011;55961;52.156;20.942;2023-10-19T02:46:51;63.03;;;30.15;;
68923;SDS011;55961;52.156;20.942;2023-10-19T02:49:24;67.03;;;32.08;;
68923;SDS011;55961;52.156;20.942;2023-10-19T02:51:54;67.57;;;33.10;;
68923;SDS011;55961;52.156;20.942;2023-10-19T02:54:24;69.07;;;32.43;;
68923;SDS011;55961;52.156;20.942;2023-10-19T02:56:53;64.63;;;30.95;;
68923;SDS011;55961;52.156;20.942;2023-10-19T02:59:23;63.35;;;32.08;;
68923;SDS011;55961;52.156;20.942;2023-10-19T03:01:53;59.53;;;29.70;;
68923;SDS011;55961;52.156;20.942;2023-10-19T03:04:27;64.03;;;28.83;;
68923;SDS011;55961;52.156;20.942;2023-10-19T03:06:55;55.92;;;27.92;;
68923;SDS011;55961;52.156;20.942;2023-10-19T03:09:22;60.60;;;28.35;;
68923;SDS011;55961;52.156;20.942;2023-10-19T03:11:54;59.85;;;28.13;;
68923;SDS011;55961;52.156;20.942;2023-10-19T03:14:30;57.78;;;28.05;;
68923;SDS011;55961;52.156;20.942;2023-10-19T03:16:57;55.97;;;28.60;;
68923;SDS011;55961;52.156;20.942;2023-10-19T03:19:24;57.72;;;26.45;;
68923;SDS011;55961;52.156;20.942;2023-10-19T03:21:50;61.72;;;27.95;;
68923;SDS011;55961;52.156;20.942;2023-10-19T03:24:17;55.35;;;27.23;;
68923;SDS011;55961;52.156;20.942;2023-10-19T03:27:03;55.30;;;26.35;;
68923;SDS011;55961;52.156;20.942;2023-10-19T03:29:49;58.97;;;27.00;;
68923;SDS011;55961;52.156;20.942;2023-10-19T03:32:20;58.60;;;27.08;;
68923;SDS011;55961;52.156;20.942;2023-10-19T03:34:47;55.95;;;26.42;;
68923;SDS011;55961;52.156;20.942;2023-10-19T03:37:20;57.67;;;25.98;;
68923;SDS011;55961;52.156;20.942;2023-10-19T03:39:51;55.33;;;27.42;;
68923;SDS011;55961;52.156;20.942;2023-10-19T03:42:17;59.23;;;28.80;;
68923;SDS011;55961;52.156;20.942;2023-10-19T03:44:46;60.67;;;29.05;;
68923;SDS011;55961;52.156;20.942;2023-10-19T03:47:15;57.95;;;27.05;;
68923;SDS011;55961;52.156;20.942;2023-10-19T03:49:45;57.25;;;26.48;;
68923;SDS011;55961;52.156;20.942;2023-10-19T03:52:12;54.78;;;27.48;;
68923;SDS011;55961;52.156;20.942;2023-10-19T03:54:38;57.90;;;27.97;;
68923;SDS011;55961;52.156;20.942;2023-10-19T03:57:14;62.88;;;28.60;;
68923;SDS011;55961;52.156;20.942;2023-10-19T03:59:45;62.63;;;28.63;;
68923;SDS011;55961;52.156;20.942;2023-10-19T04:02:14;55.90;;;25.67;;
68923;SDS011;55961;52.156;20.942;2023-10-19T04:04:49;58.95;;;27.48;;
68923;SDS011;55961;52.156;20.942;2023-10-19T04:07:17;53.07;;;25.50;;
68923;SDS011;55961;52.156;20.942;2023-10-19T04:09:51;53.88;;;25.70;;
68923;SDS011;55961;52.156;20.942;2023-10-19T04:12:30;52.67;;;24.33;;
68923;SDS011;55961;52.156;20.942;2023-10-19T04:14:56;47.92;;;24.08;;
68923;SDS011;55961;52.156;20.942;2023-10-19T04:17:23;50.25;;;24.23;;
68923;SDS011;55961;52.156;20.942;2023-10-19T04:19:50;51.37;;;24.13;;
68923;SDS011;55961;52.156;20.942;2023-10-19T04:22:20;49.78;;;23.45;;
68923;SDS011;55961;52.156;20.942;2023-10-19T04:24:50;51.38;;;24.00;;
68923;SDS011;55961;52.156;20.942;2023-10-19T04:27:16;49.92;;;25.75;;
68923;SDS011;55961;52.156;20.942;2023-10-19T04:29:42;55.15;;;26.17;;
68923;SDS011;55961;52.156;20.942;2023-10-19T04:32:10;51.83;;;24.77;;
68923;SDS011;55961;52.156;20.942;2023-10-19T04:34:39;57.05;;;27.02;;
68923;SDS011;55961;52.156;20.942;2023-10-19T04:37:05;56.45;;;27.02;;
68923;SDS011;55961;52.156;20.942;2023-10-19T04:39:32;55.55;;;27.00;;
68923;SDS011;55961;52.156;20.942;2023-10-19T04:41:59;54.67;;;26.02;;
68923;SDS011;55961;52.156;20.942;2023-10-19T04:44:26;51.37;;;25.07;;
68923;SDS011;55961;52.156;20.942;2023-10-19T04:46:51;50.25;;;25.98;;
68923;SDS011;55961;52.156;20.942;2023-10-19T04:49:18;52.47;;;26.17;;
68923;SDS011;55961;52.156;20.942;2023-10-19T04:51:47;51.92;;;25.38;;
68923;SDS011;55961;52.156;20.942;2023-10-19T04:54:13;63.60;;;31.40;;
68923;SDS011;55961;52.156;20.942;2023-10-19T04:56:39;144.20;;;51.20;;
68923;SDS011;55961;52.156;20.942;2023-10-19T04:59:05;119.55;;;45.20;;
68923;SDS011;55961;52.156;20.942;2023-10-19T05:01:31;105.88;;;40.78;;
68923;SDS011;55961;52.156;20.942;2023-10-19T05:04:00;95.83;;;36.37;;
68923;SDS011;55961;52.156;20.942;2023-10-19T05:06:26;76.30;;;31.73;;
68923;SDS011;55961;52.156;20.942;2023-10-19T05:08:52;75.45;;;31.02;;
68923;SDS011;55961;52.156;20.942;2023-10-19T05:11:18;74.00;;;30.38;;
68923;SDS011;55961;52.156;20.942;2023-10-19T05:13:44;69.30;;;29.20;;
68923;SDS011;55961;52.156;20.942;2023-10-19T05:16:10;95.20;;;37.67;;
68923;SDS011;55961;52.156;20.942;2023-10-19T05:18:36;91.40;;;37.92;;
68923;SDS011;55961;52.156;20.942;2023-10-19T05:21:01;100.20;;;37.87;;
68923;SDS011;55961;52.156;20.942;2023-10-19T05:23:28;83.80;;;36.40;;
68923;SDS011;55961;52.156;20.942;2023-10-19T05:25:59;94.32;;;36.30;;
68923;SDS011;55961;52.156;20.942;2023-10-19T05:28:27;89.07;;;36.85;;
68923;SDS011;55961;52.156;20.942;2023-10-19T05:30:53;83.28;;;35.47;;
68923;SDS011;55961;52.156;20.942;2023-10-19T05:33:20;69.80;;;30.40;;
68923;SDS011;55961;52.156;20.942;2023-10-19T05:35:47;75.00;;;34.55;;
68923;SDS011;55961;52.156;20.942;2023-10-19T05:38:13;61.30;;;31.08;;
68923;SDS011;55961;52.156;20.942;2023-10-19T05:40:39;59.10;;;29.95;;
68923;SDS011;55961;52.156;20.942;2023-10-19T05:43:08;52.60;;;27.33;;
68923;SDS011;55961;52.156;20.942;2023-10-19T05:45:34;57.05;;;26.55;;
68923;SDS011;55961;52.156;20.942;2023-10-19T05:48:01;53.22;;;27.00;;
68923;SDS011;55961;52.156;20.942;2023-10-19T05:50:32;52.05;;;27.90;;
68923;SDS011;55961;52.156;20.942;2023-10-19T05:53:02;57.00;;;27.15;;
68923;SDS011;55961;52.156;20.942;2023-10-19T05:55:29;60.70;;;28.17;;
68923;SDS011;55961;52.156;20.942;2023-10-19T05:57:55;61.10;;;28.77;;
68923;SDS011;55961;52.156;20.942;2023-10-19T06:00:21;64.72;;;29.40;;
68923;SDS011;55961;52.156;20.942;2023-10-19T06:02:51;66.15;;;31.55;;
68923;SDS011;55961;52.156;20.942;2023-10-19T06:05:17;62.95;;;29.40;;
68923;SDS011;55961;52.156;20.942;2023-10-19T06:07:44;62.77;;;30.47;;
68923;SDS011;55961;52.156;20.942;2023-10-19T06:10:18;53.55;;;28.88;;
68923;SDS011;55961;52.156;20.942;2023-10-19T06:12:46;60.75;;;29.25;;
68923;SDS011;55961;52.156;20.942;2023-10-19T06:15:18;53.08;;;27.23;;
68923;SDS011;55961;52.156;20.942;2023-10-19T06:17:53;55.42;;;26.02;;
68923;SDS011;55961;52.156;20.942;2023-10-19T06:20:20;51.20;;;25.63;;
68923;SDS011;55961;52.156;20.942;2023-10-19T06:22:55;45.30;;;24.90;;
68923;SDS011;55961;52.156;20.942;2023-10-19T06:25:23;49.75;;;24.02;;
68923;SDS011;55961;52.156;20.942;2023-10-19T06:27:50;48.72;;;24.80;;
68923;SDS011;55961;52.156;20.942;2023-10-19T06:30:17;49.35;;;23.98;;
68923;SDS011;55961;52.156;20.942;2023-10-19T06:32:45;49.97;;;24.93;;
68923;SDS011;55961;52.156;20.942;2023-10-19T06:35:13;53.70;;;25.17;;
68923;SDS011;55961;52.156;20.942;2023-10-19T06:37:39;51.58;;;25.60;;
68923;SDS011;55961;52.156;20.942;2023-10-19T06:40:06;50.35;;;25.25;;
68923;SDS011;55961;52.156;20.942;2023-10-19T06:42:32;49.55;;;24.77;;
68923;SDS011;55961;52.156;20.942;2023-10-19T06:45:00;48.73;;;24.40;;
68923;SDS011;55961;52.156;20.942;2023-10-19T06:47:27;43.35;;;22.85;;
68923;SDS011;55961;52.156;20.942;2023-10-19T06:49:54;45.70;;;23.45;;
68923;SDS011;55961;52.156;20.942;2023-10-19T06:52:22;39.88;;;21.60;;
68923;SDS011;55961;52.156;20.942;2023-10-19T06:54:48;45.72;;;23.73;;
68923;SDS011;55961;52.156;20.942;2023-10-19T06:57:14;43.20;;;20.00;;
68923;SDS011;55961;52.156;20.942;2023-10-19T06:59:40;40.22;;;20.95;;
68923;SDS011;55961;52.156;20.942;2023-10-19T07:02:06;39.93;;;19.57;;
68923;SDS011;55961;52.156;20.942;2023-10-19T07:04:33;37.63;;;19.63;;
68923;SDS011;55961;52.156;20.942;2023-10-19T07:06:59;39.53;;;19.95;;
68923;SDS011;55961;52.156;20.942;2023-10-19T07:09:26;41.75;;;20.25;;
68923;SDS011;55961;52.156;20.942;2023-10-19T07:11:52;41.47;;;20.30;;
68923;SDS011;55961;52.156;20.942;2023-10-19T07:14:22;40.08;;;20.70;;
68923;SDS011;55961;52.156;20.942;2023-10-19T07:16:51;39.00;;;19.20;;
68923;SDS011;55961;52.156;20.942;2023-10-19T07:19:17;36.90;;;18.70;;
68923;SDS011;55961;52.156;20.942;2023-10-19T07:21:43;38.50;;;18.63;;
68923;SDS011;55961;52.156;20.942;2023-10-19T07:24:14;38.10;;;17.90;;
68923;SDS011;55961;52.156;20.942;2023-10-19T07:26:43;33.15;;;17.75;;
68923;SDS011;55961;52.156;20.942;2023-10-19T07:29:21;34.25;;;17.67;;
68923;SDS011;55961;52.156;20.942;2023-10-19T07:31:47;35.67;;;16.77;;
68923;SDS011;55961;52.156;20.942;2023-10-19T07:34:13;31.80;;;16.77;;
68923;SDS011;55961;52.156;20.942;2023-10-19T07:36:41;31.35;;;16.77;;
68923;SDS011;55961;52.156;20.942;2023-10-19T07:39:08;39.63;;;18.65;;
68923;SDS011;55961;52.156;20.942;2023-10-19T07:41:40;39.25;;;19.30;;
68923;SDS011;55961;52.156;20.942;2023-10-19T07:44:06;35.65;;;18.25;;
68923;SDS011;55961;52.156;20.942;2023-10-19T07:46:32;32.87;;;18.23;;
68923;SDS011;55961;52.156;20.942;2023-10-19T07:48:58;35.38;;;17.83;;
68923;SDS011;55961;52.156;20.942;2023-10-19T07:51:26;38.85;;;18.17;;
68923;SDS011;55961;52.156;20.942;2023-10-19T07:53:53;37.13;;;20.05;;
68923;SDS011;55961;52.156;20.942;2023-10-19T07:56:18;38.40;;;19.43;;
68923;SDS011;55961;52.156;20.942;2023-10-19T07:58:44;38.88;;;17.95;;
68923;SDS011;55961;52.156;20.942;2023-10-19T08:01:11;33.60;;;18.30;;
68923;SDS011;55961;52.156;20.942;2023-10-19T08:03:37;34.30;;;17.58;;
68923;SDS011;55961;52.156;20.942;2023-10-19T08:06:03;32.80;;;17.40;;
68923;SDS011;55961;52.156;20.942;2023-10-19T08:08:30;30.02;;;16.05;;
68923;SDS011;55961;52.156;20.942;2023-10-19T08:10:59;32.72;;;16.40;;
68923;SDS011;55961;52.156;20.942;2023-10-19T08:13:26;31.90;;;16.23;;
68923;SDS011;55961;52.156;20.942;2023-10-19T08:15:52;33.13;;;16.38;;
68923;SDS011;55961;52.156;20.942;2023-10-19T08:18:18;29.50;;;15.77;;
68923;SDS011;55961;52.156;20.942;2023-10-19T08:20:45;27.15;;;14.60;;
68923;SDS011;55961;52.156;20.942;2023-10-19T08:23:12;29.08;;;16.02;;
68923;SDS011;55961;52.156;20.942;2023-10-19T08:25:42;25.65;;;14.57;;
68923;SDS011;55961;52.156;20.942;2023-10-19T08:28:09;27.77;;;13.30;;
68923;SDS011;55961;52.156;20.942;2023-10-19T08:30:36;26.43;;;14.83;;
68923;SDS011;55961;52.156;20.942;2023-10-19T08:33:03;28.58;;;14.60;;
68923;SDS011;55961;52.156;20.942;2023-10-19T08:35:29;27.17;;;13.60;;
68923;SDS011;55961;52.156;20.942;2023-10-19T08:37:56;33.22;;;14.23;;
68923;SDS011;55961;52.156;20.942;2023-10-19T08:40:26;32.88;;;18.20;;
68923;SDS011;55961;52.156;20.942;2023-10-19T08:42:53;31.10;;;15.20;;
68923;SDS011;55961;52.156;20.942;2023-10-19T08:45:20;32.65;;;15.02;;
68923;SDS011;55961;52.156;20.942;2023-10-19T08:47:54;22.88;;;11.48;;
68923;SDS011;55961;52.156;20.942;2023-10-19T08:50:27;25.73;;;14.52;;
68923;SDS011;55961;52.156;20.942;2023-10-19T08:52:54;26.10;;;14.98;;
68923;SDS011;55961;52.156;20.942;2023-10-19T08:55:22;25.63;;;13.63;;
68923;SDS011;55961;52.156;20.942;2023-10-19T08:57:48;26.63;;;12.65;;
68923;SDS011;55961;52.156;20.942;2023-10-19T09:00:15;20.98;;;12.52;;
68923;SDS011;55961;52.156;20.942;2023-10-19T09:02:45;29.48;;;14.05;;
68923;SDS011;55961;52.156;20.942;2023-10-19T09:05:11;24.42;;;13.40;;
68923;SDS011;55961;52.156;20.942;2023-10-19T09:07:54;24.03;;;13.13;;
68923;SDS011;55961;52.156;20.942;2023-10-19T09:10:23;23.45;;;12.10;;
68923;SDS011;55961;52.156;20.942;2023-10-19T09:13:01;21.75;;;12.38;;
68923;SDS011;55961;52.156;20.942;2023-10-19T09:15:29;25.58;;;11.57;;
68923;SDS011;55961;52.156;20.942;2023-10-19T09:17:58;20.40;;;11.25;;
68923;SDS011;55961;52.156;20.942;2023-10-19T09:20:48;17.47;;;10.10;;
68923;SDS011;55961;52.156;20.942;2023-10-19T09:23:22;23.45;;;10.80;;
68923;SDS011;55961;52.156;20.942;2023-10-19T09:25:52;22.02;;;10.05;;
68923;SDS011;55961;52.156;20.942;2023-10-19T09:28:19;19.55;;;9.50;;
68923;SDS011;55961;52.156;20.942;2023-10-19T09:30:49;22.50;;;11.35;;
68923;SDS011;55961;52.156;20.942;2023-10-19T09:33:19;22.30;;;11.03;;
68923;SDS011;55961;52.156;20.942;2023-10-19T09:35:47;29.80;;;13.00;;
68923;SDS011;55961;52.156;20.942;2023-10-19T09:38:17;25.60;;;11.93;;
68923;SDS011;55961;52.156;20.942;2023-10-19T09:40:53;19.02;;;9.77;;
68923;SDS011;55961;52.156;20.942;2023-10-19T09:46:23;16.13;;;8.23;;
68923;SDS011;55961;52.156;20.942;2023-10-19T09:48:54;14.18;;;7.65;;
68923;SDS011;55961;52.156;20.942;2023-10-19T09:51:21;18.10;;;8.77;;
68923;SDS011;55961;52.156;20.942;2023-10-19T09:53:49;23.05;;;12.25;;
68923;SDS011;55961;52.156;20.942;2023-10-19T09:56:24;16.52;;;8.70;;
68923;SDS011;55961;52.156;20.942;2023-10-19T09:58:57;17.00;;;8.63;;
68923;SDS011;55961;52.156;20.942;2023-10-19T10:02:02;26.88;;;13.80;;
68923;SDS011;55961;52.156;20.942;2023-10-19T10:04:31;24.17;;;13.75;;
68923;SDS011;55961;52.156;20.942;2023-10-19T10:06:58;19.92;;;12.07;;
68923;SDS011;55961;52.156;20.942;2023-10-19T10:09:28;20.73;;;10.75;;
68923;SDS011;55961;52.156;20.942;2023-10-19T10:11:55;37.60;;;15.93;;
68923;SDS011;55961;52.156;20.942;2023-10-19T10:14:22;26.27;;;12.52;;
68923;SDS011;55961;52.156;20.942;2023-10-19T10:16:59;20.70;;;9.07;;
68923;SDS011;55961;52.156;20.942;2023-10-19T10:19:26;22.77;;;10.95;;
68923;SDS011;55961;52.156;20.942;2023-10-19T10:22:03;19.60;;;10.03;;
68923;SDS011;55961;52.156;20.942;2023-10-19T10:24:43;42.90;;;20.80;;
68923;SDS011;55961;52.156;20.942;2023-10-19T10:27:09;39.13;;;17.77;;
68923;SDS011;55961;52.156;20.942;2023-10-19T10:29:54;35.33;;;14.57;;
68923;SDS011;55961;52.156;20.942;2023-10-19T10:38:06;18.13;;;9.60;;
68923;SDS011;55961;52.156;20.942;2023-10-19T10:40:47;17.02;;;9.10;;
68923;SDS011;55961;52.156;20.942;2023-10-19T10:43:15;19.77;;;10.07;;
68923;SDS011;55961;52.156;20.942;2023-10-19T10:45:42;14.40;;;7.40;;
68923;SDS011;55961;52.156;20.942;2023-10-19T10:48:12;14.83;;;8.03;;
68923;SDS011;55961;52.156;20.942;2023-10-19T10:50:42;15.70;;;8.00;;
68923;SDS011;55961;52.156;20.942;2023-10-19T10:53:11;15.60;;;8.52;;
68923;SDS011;55961;52.156;20.942;2023-10-19T10:55:37;18.35;;;8.85;;
68923;SDS011;55961;52.156;20.942;2023-10-19T10:58:04;17.17;;;8.73;;
68923;SDS011;55961;52.156;20.942;2023-10-19T11:00:30;21.00;;;9.33;;
68923;SDS011;55961;52.156;20.942;2023-10-19T11:03:03;20.38;;;10.50;;
68923;SDS011;55961;52.156;20.942;2023-10-19T11:05:33;69.45;;;27.23;;
68923;SDS011;55961;52.156;20.942;2023-10-19T11:08:07;68.78;;;26.98;;
68923;SDS011;55961;52.156;20.942;2023-10-19T11:10:35;81.88;;;32.95;;
68923;SDS011;55961;52.156;20.942;2023-10-19T11:15:36;17.02;;;9.07;;
68923;SDS011;55961;52.156;20.942;2023-10-19T11:18:03;16.02;;;8.98;;
68923;SDS011;55961;52.156;20.942;2023-10-19T11:20:32;17.88;;;9.00;;
68923;SDS011;55961;52.156;20.942;2023-10-19T11:22:59;19.58;;;8.95;;
68923;SDS011;55961;52.156;20.942;2023-10-19T11:25:28;15.83;;;8.50;;
68923;SDS011;55961;52.156;20.942;2023-10-19T11:27:56;18.45;;;9.25;;
68923;SDS011;55961;52.156;20.942;2023-10-19T11:30:27;19.17;;;9.00;;
68923;SDS011;55961;52.156;20.942;2023-10-19T11:32:57;16.98;;;9.63;;
68923;SDS011;55961;52.156;20.942;2023-10-19T11:35:24;18.67;;;10.82;;
68923;SDS011;55961;52.156;20.942;2023-10-19T11:38:00;16.80;;;8.10;;
68923;SDS011;55961;52.156;20.942;2023-10-19T11:40:28;15.55;;;8.27;;
68923;SDS011;55961;52.156;20.942;2023-10-19T11:42:54;13.07;;;6.85;;
68923;SDS011;55961;52.156;20.942;2023-10-19T11:45:25;15.98;;;8.07;;
68923;SDS011;55961;52.156;20.942;2023-10-19T11:47:52;16.20;;;8.40;;
68923;SDS011;55961;52.156;20.942;2023-10-19T11:50:18;14.47;;;7.87;;
68923;SDS011;55961;52.156;20.942;2023-10-19T11:52:45;17.52;;;8.73;;
68923;SDS011;55961;52.156;20.942;2023-10-19T11:55:12;17.85;;;8.05;;
68923;SDS011;55961;52.156;20.942;2023-10-19T11:57:41;19.60;;;10.02;;
68923;SDS011;55961;52.156;20.942;2023-10-19T12:00:10;17.87;;;8.07;;
68923;SDS011;55961;52.156;20.942;2023-10-19T12:02:39;16.25;;;8.23;;
68923;SDS011;55961;52.156;20.942;2023-10-19T12:05:08;18.83;;;9.15;;
68923;SDS011;55961;52.156;20.942;2023-10-19T12:07:38;17.13;;;9.20;;
68923;SDS011;55961;52.156;20.942;2023-10-19T12:10:09;23.45;;;10.73;;
68923;SDS011;55961;52.156;20.942;2023-10-19T12:12:36;20.43;;;10.03;;
68923;SDS011;55961;52.156;20.942;2023-10-19T12:15:05;17.55;;;9.52;;
68923;SDS011;55961;52.156;20.942;2023-10-19T12:17:32;18.88;;;9.25;;
68923;SDS011;55961;52.156;20.942;2023-10-19T12:19:58;19.70;;;10.40;;
68923;SDS011;55961;52.156;20.942;2023-10-19T12:22:24;17.40;;;9.48;;
68923;SDS011;55961;52.156;20.942;2023-10-19T12:24:57;17.37;;;8.90;;
68923;SDS011;55961;52.156;20.942;2023-10-19T12:27:24;20.77;;;9.55;;
68923;SDS011;55961;52.156;20.942;2023-10-19T12:29:51;18.67;;;7.60;;
68923;SDS011;55961;52.156;20.942;2023-10-19T12:32:19;17.90;;;9.00;;
68923;SDS011;55961;52.156;20.942;2023-10-19T12:34:47;15.48;;;8.10;;
68923;SDS011;55961;52.156;20.942;2023-10-19T12:37:23;15.83;;;8.93;;
68923;SDS011;55961;52.156;20.942;2023-10-19T12:39:50;16.75;;;9.00;;
68923;SDS011;55961;52.156;20.942;2023-10-19T12:42:16;15.85;;;8.88;;
68923;SDS011;55961;52.156;20.942;2023-10-19T12:44:43;15.73;;;8.82;;
68923;SDS011;55961;52.156;20.942;2023-10-19T12:47:09;17.67;;;8.88;;
68923;SDS011;55961;52.156;20.942;2023-10-19T12:49:38;16.47;;;8.13;;
68923;SDS011;55961;52.156;20.942;2023-10-19T12:52:10;18.00;;;9.27;;
68923;SDS011;55961;52.156;20.942;2023-10-19T12:54:36;16.58;;;8.77;;
68923;SDS011;55961;52.156;20.942;2023-10-19T12:57:06;23.25;;;9.65;;
68923;SDS011;55961;52.156;20.942;2023-10-19T12:59:35;32.65;;;18.65;;
68923;SDS011;55961;52.156;20.942;2023-10-19T13:02:05;30.33;;;15.93;;
68923;SDS011;55961;52.156;20.942;2023-10-19T13:04:34;19.35;;;10.55;;
68923;SDS011;55961;52.156;20.942;2023-10-19T13:07:00;35.67;;;15.77;;
68923;SDS011;55961;52.156;20.942;2023-10-19T13:09:28;44.75;;;19.85;;
68923;SDS011;55961;52.156;20.942;2023-10-19T13:12:00;49.13;;;22.35;;
68923;SDS011;55961;52.156;20.942;2023-10-19T13:14:26;37.77;;;18.10;;
68923;SDS011;55961;52.156;20.942;2023-10-19T13:16:53;35.47;;;17.80;;
68923;SDS011;55961;52.156;20.942;2023-10-19T13:19:22;22.88;;;11.07;;
68923;SDS011;55961;52.156;20.942;2023-10-19T13:21:51;22.52;;;10.35;;
68923;SDS011;55961;52.156;20.942;2023-10-19T13:24:18;15.75;;;8.57;;
68923;SDS011;55961;52.156;20.942;2023-10-19T13:26:46;18.43;;;9.60;;
68923;SDS011;55961;52.156;20.942;2023-10-19T13:29:13;16.17;;;9.18;;
68923;SDS011;55961;52.156;20.942;2023-10-19T13:31:40;17.27;;;9.10;;
68923;SDS011;55961;52.156;20.942;2023-10-19T13:34:06;17.08;;;9.18;;
68923;SDS011;55961;52.156;20.942;2023-10-19T13:36:36;19.75;;;9.35;;
68923;SDS011;55961;52.156;20.942;2023-10-19T13:39:02;17.77;;;8.93;;
68923;SDS011;55961;52.156;20.942;2023-10-19T13:41:28;18.10;;;9.45;;
68923;SDS011;55961;52.156;20.942;2023-10-19T13:43:55;22.42;;;10.30;;
68923;SDS011;55961;52.156;20.942;2023-10-19T13:46:21;21.73;;;9.90;;
68923;SDS011;55961;52.156;20.942;2023-10-19T13:48:49;19.80;;;9.65;;
68923;SDS011;55961;52.156;20.942;2023-10-19T13:51:16;20.27;;;9.57;;
68923;SDS011;55961;52.156;20.942;2023-10-19T13:53:44;18.42;;;9.05;;
68923;SDS011;55961;52.156;20.942;2023-10-19T13:56:10;20.10;;;10.05;;
68923;SDS011;55961;52.156;20.942;2023-10-19T13:58:40;21.17;;;9.48;;
68923;SDS011;55961;52.156;20.942;2023-10-19T14:01:06;15.90;;;9.13;;
68923;SDS011;55961;52.156;20.942;2023-10-19T14:03:36;20.63;;;9.02;;
68923;SDS011;55961;52.156;20.942;2023-10-19T14:06:03;17.70;;;9.80;;
68923;SDS011;55961;52.156;20.942;2023-10-19T14:08:29;20.52;;;10.00;;
68923;SDS011;55961;52.156;20.942;2023-10-19T14:11:02;20.13;;;8.93;;
68923;SDS011;55961;52.156;20.942;2023-10-19T14:13:29;17.63;;;9.20;;
68923;SDS011;55961;52.156;20.942;2023-10-19T14:15:55;20.73;;;9.27;;
68923;SDS011;55961;52.156;20.942;2023-10-19T14:18:21;17.80;;;8.57;;
68923;SDS011;55961;52.156;20.942;2023-10-19T14:20:47;17.00;;;8.13;;
68923;SDS011;55961;52.156;20.942;2023-10-19T14:23:13;17.38;;;8.77;;
68923;SDS011;55961;52.156;20.942;2023-10-19T14:25:39;17.95;;;8.85;;
68923;SDS011;55961;52.156;20.942;2023-10-19T14:28:07;17.95;;;8.90;;
68923;SDS011;55961;52.156;20.942;2023-10-19T14:30:35;17.93;;;9.50;;
68923;SDS011;55961;52.156;20.942;2023-10-19T14:33:03;17.20;;;8.73;;
68923;SDS011;55961;52.156;20.942;2023-10-19T14:35:34;16.70;;;8.95;;